Angler Guide Weather for Chicoutimi Bagotville -
Chicoutimi Bagotville, Québec Current Weather Conditions
Enter your "Place, State", US Zip Code or ICAO:  
Forecast Information Radar Information
Chicoutimi Bagotville, Québec, Canada  Lat: 48.32N, Lon: 71W
ICAO Used: CYRJ
Current Conditions
Updated:
Sun & Moon Information:
Temp: N/A
Humidity: N/A
Wind Speed: N/A
Barometer: N/A
Dewpoint: N/A
Heat Index: N/A
Wind Chill: N/A
Civil Twilight: 6:33 AM EDT
Moonrise: 4:26 AM EDT Moon Phase:
Waning Crescent Moon
Waning Crescent Moon
Moonset: 5:19 PM EDT
Sunrise: 7:05 AM EDT
Sunset: 5:51 PM EDT
Civil Twilight: 6:23 PM EDT
Forecast for Chicoutimi Bagotville, QC:
(Forecast based on TAF for )
0339 PM EDT MON NOV 06 2006
  
AFTERNOONEVENINGOVERNIGHT
MOSTLY CLOUDYMOSTLY CLOUDYMOSTLY CLOUDY
Mostly
Cloudy
Mostly
Cloudy
Mostly
Cloudy
TAF based forecast:
Dated: 0339 PM EDT MON NOV 06 2006
Afternoon...Mostly cloudy with winds from the south east at 5 mph. Possible periods of mostly cloudy.
Evening...Mostly cloudy with winds from the south east at 5 mph.
Overnight...Mostly cloudy with winds from the south east at 5 mph. Then turning overcast with winds from the south west at 12 mph.
Original Encoded TAF:
Dated: 0339 PM EDT MON NOV 06 2006
2006/11/06 19:39
CYRJ 061939Z 062008 13004KT P6SM BKN030 TEMPO 2021 BKN020 FM0300Z 21010KT P6SM OVC015=




Powered by Angler Guide.com
Copyright © 2007, all rights reserved.